Terminal Aerodrome Forecast
Issued by NWS

Home | Current Version | Previous Version | Text Only | Print | Product List | Glossary Off
Versions: 1 2 3 4 5 6 7 8 9 10 11 12 13 14 15 16 17 18 19 20 21

125
FTUS43 KABR 222323
TAFPIR
TAF
KPIR 222323Z 2300/2324 15020G28KT P6SM SCT200
     FM230400 14011KT P6SM SCT200
     FM231500 14009KT P6SM OVC015=

USA.gov is the U.S. government's official web portal to all federal, state and local government web resources and services.